Time;durP1;ratioP1;P1;durP2;ratioP2;P2;SDS_P1;SDS_P2;PMS_P1;PMS_P2;Temp;Humidity;BMP_temperature;BMP_pressure;BME280_temperature;BME280_humidity;BME280_pressure;Samples;Min_cycle;Max_cycle;Signal;HPM_P1;HPM_P2
2021/12/19 00:00:19;;;;;;;1.40;1.30;;;;;;;8.15;36.93;97371.81;5089265;28;20522;-68
2021/12/19 00:10:25;;;;;;;0.77;0.77;;;;;;;8.75;36.69;97374.47;5090467;28;20043;-68
2021/12/19 00:12:52;;;;;;;0.80;0.80;;;;;;;8.45;36.93;97365.25;5090277;28;20040;-68
2021/12/19 00:15:18;;;;;;;0.60;0.60;;;;;;;8.59;37.02;97348.41;5072459;28;20043;-67
2021/12/19 00:17:45;;;;;;;0.90;0.90;;;;;;;8.30;37.15;97317.03;5106223;28;20039;-67
2021/12/19 00:20:11;;;;;;;0.77;0.77;;;;;;;8.47;37.23;97321.72;5072284;28;20040;-67
2021/12/19 00:22:37;;;;;;;0.80;0.80;;;;;;;8.85;36.46;97340.50;5105802;28;20978;-67
2021/12/19 00:25:05;;;;;;;0.90;0.90;;;;;;;9.44;37.71;97306.81;5105974;28;20043;-68
2021/12/19 00:27:31;;;;;;;0.90;0.90;;;;;;;8.54;36.76;97303.22;5090134;28;20139;-67
2021/12/19 00:29:57;;;;;;;0.93;0.93;;;;;;;8.77;36.62;97322.16;5089993;28;20134;-67
2021/12/19 00:32:23;;;;;;;0.70;0.70;;;;;;;8.90;36.10;97306.31;5088944;28;20062;-68
2021/12/19 00:34:51;;;;;;;0.80;0.80;;;;;;;9.11;35.78;97294.66;5071891;28;20048;-68
2021/12/19 00:37:19;;;;;;;0.63;0.63;;;;;;;9.13;36.18;97282.88;5072457;28;20147;-67
2021/12/19 00:39:45;;;;;;;1.00;1.00;;;;;;;9.13;35.88;97298.75;5105828;28;20499;-67
2021/12/19 00:42:11;;;;;;;0.70;0.70;;;;;;;9.08;35.82;97266.78;5088733;28;20485;-67
2021/12/19 00:44:38;;;;;;;0.73;0.73;;;;;;;9.27;35.49;97267.75;5090028;28;20071;-66
2021/12/19 00:47:07;;;;;;;0.97;0.97;;;;;;;9.43;35.36;97256.72;5091983;28;20131;-68
2021/12/19 00:49:34;;;;;;;0.90;0.90;;;;;;;9.52;35.54;97260.75;5092618;28;20538;-67
2021/12/19 00:52:01;;;;;;;0.97;0.97;;;;;;;9.63;35.04;97230.97;5093898;28;20040;-68
2021/12/19 00:54:28;;;;;;;1.00;1.00;;;;;;;9.42;35.27;97224.13;5076038;28;20040;-68
2021/12/19 00:56:53;;;;;;;1.13;1.10;;;;;;;9.34;35.25;97216.41;5093803;28;20059;-68
2021/12/19 00:59:20;;;;;;;1.53;1.43;;;;;;;9.64;34.83;97209.53;5060051;28;20056;-66
2021/12/19 01:01:47;;;;;;;1.30;1.20;;;;;;;9.69;35.12;97208.91;5110070;28;20418;-66
2021/12/19 01:04:15;;;;;;;0.80;0.80;;;;;;;9.85;35.13;97193.34;5092553;28;20085;-66
2021/12/19 01:06:43;;;;;;;1.07;1.07;;;;;;;9.84;35.05;97185.63;5058945;28;20060;-67
2021/12/19 01:09:10;;;;;;;0.90;0.90;;;;;;;9.58;35.12;97173.31;5092437;28;20313;-67
2021/12/19 01:11:36;;;;;;;0.87;0.87;;;;;;;9.55;35.49;97167.59;5093641;28;20067;-67
2021/12/19 01:14:03;;;;;;;1.43;1.33;;;;;;;9.42;35.54;97165.84;5092294;28;20048;-68
2021/12/19 01:16:29;;;;;;;0.70;0.70;;;;;;;9.22;35.71;97149.22;5093670;28;20040;-67
2021/12/19 01:18:55;;;;;;;0.90;0.90;;;;;;;9.25;35.86;97140.03;5090892;28;20040;-66
2021/12/19 01:21:21;;;;;;;1.63;1.53;;;;;;;9.08;35.79;97138.88;5075053;28;20039;-67
2021/12/19 01:23:48;;;;;;;0.90;0.90;;;;;;;9.18;35.87;97116.22;5075466;28;20047;-67
2021/12/19 01:26:14;;;;;;;0.90;0.90;;;;;;;8.95;35.74;97062.19;5092837;28;20442;-67
2021/12/19 01:28:42;;;;;;;0.73;0.73;;;;;;;9.58;35.61;97122.16;5109151;28;20135;-67
2021/12/19 01:31:09;;;;;;;0.90;0.90;;;;;;;9.46;35.75;97102.66;5075448;28;20131;-66
2021/12/19 01:33:36;;;;;;;0.93;0.93;;;;;;;9.55;35.68;97086.28;5075278;28;20043;-66
2021/12/19 01:36:03;;;;;;;1.07;0.97;;;;;;;9.76;35.61;97071.91;5093153;28;20075;-65
2021/12/19 01:38:30;;;;;;;0.83;0.83;;;;;;;9.53;35.30;97075.09;5092036;28;20043;-66
2021/12/19 01:40:57;;;;;;;0.80;0.80;;;;;;;10.02;35.11;97069.03;5091739;28;20049;-65
2021/12/19 01:43:24;;;;;;;0.93;0.93;;;;;;;9.64;35.22;97058.50;5075201;28;20564;-66
2021/12/19 01:45:51;;;;;;;1.00;1.00;;;;;;;9.92;35.26;97047.50;5091956;28;20040;-66
2021/12/19 01:48:17;;;;;;;0.80;0.80;;;;;;;9.77;35.18;97042.53;5092227;28;20071;-66
2021/12/19 01:50:43;;;;;;;0.80;0.80;;;;;;;9.78;35.33;97017.63;5091876;28;20044;-65
2021/12/19 01:53:11;;;;;;;1.03;1.00;;;;;;;10.15;35.23;97034.47;5091489;28;20418;-65
2021/12/19 01:55:37;;;;;;;0.80;0.80;;;;;;;9.78;35.36;97022.13;5074744;28;20050;-66
2021/12/19 01:58:03;;;;;;;0.90;0.90;;;;;;;9.74;35.43;97000.56;5074454;28;20100;-66
2021/12/19 02:00:39;;;;;;;0.80;0.80;;;;;;;10.42;35.02;96993.41;5091387;28;20136;-66
2021/12/19 02:03:06;;;;;;;0.90;0.90;;;;;;;10.14;35.43;96990.44;5092514;28;20564;-65
2021/12/19 02:05:32;;;;;;;0.90;0.90;;;;;;;9.94;35.51;96980.00;5092530;28;20276;-66
2021/12/19 02:07:59;;;;;;;0.90;0.90;;;;;;;9.95;35.50;96986.91;5074333;28;20052;-66
2021/12/19 02:10:27;;;;;;;0.83;0.83;;;;;;;10.21;35.43;96975.25;5091243;28;20597;-66
2021/12/19 02:12:54;;;;;;;0.90;0.90;;;;;;;9.98;35.63;96962.59;5073966;28;20488;-67
2021/12/19 02:15:25;;;;;;;0.70;0.70;;;;;;;10.30;35.37;96955.38;5074316;28;20059;-66
2021/12/19 02:17:53;;;;;;;1.00;1.00;;;;;;;10.27;35.22;96936.44;5091149;28;20047;-66
2021/12/19 02:20:20;;;;;;;2.57;1.03;;;;;;;10.33;35.22;96935.56;5091103;28;20040;-65
2021/12/19 02:22:47;;;;;;;0.90;0.90;;;;;;;9.96;35.49;96918.81;5089615;28;20044;-66
2021/12/19 02:25:14;;;;;;;1.10;1.00;;;;;;;9.98;35.38;96922.84;5071832;28;20051;-66
2021/12/19 02:27:41;;;;;;;1.20;1.10;;;;;;;9.92;35.74;96909.66;5072016;28;20039;-65
2021/12/19 02:30:08;;;;;;;1.00;1.00;;;;;;;10.27;35.38;96871.75;5071576;28;20040;-65
2021/12/19 02:32:36;;;;;;;1.17;1.03;;;;;;;10.15;35.32;96896.56;5071795;28;20048;-66
2021/12/19 02:35:09;;;;;;;0.90;0.90;;;;;;;10.51;34.89;96869.19;5071644;28;20036;-65
2021/12/19 02:50:36;;;;;;;1.10;1.00;;;;;;;10.03;35.23;96813.47;5059508;28;20036;-64
2021/12/19 02:53:02;;;;;;;1.07;1.07;;;;;;;9.83;35.24;96813.72;5073555;28;20147;-65
2021/12/19 02:55:28;;;;;;;1.20;1.10;;;;;;;9.92;35.47;96799.13;5073787;28;20127;-65
2021/12/19 02:57:54;;;;;;;1.40;1.30;;;;;;;9.78;35.52;96796.84;5090789;28;20097;-64
2021/12/19 03:00:25;;;;;;;1.20;1.10;;;;;;;10.55;35.01;96788.91;5091486;28;20044;-64
2021/12/19 03:02:52;;;;;;;0.90;0.90;;;;;;;10.11;35.46;96770.78;5090619;28;20081;-65
2021/12/19 03:05:18;;;;;;;0.80;0.80;;;;;;;9.72;35.38;96731.50;5090281;28;20079;-67
2021/12/19 03:07:45;;;;;;;1.03;0.93;;;;;;;10.20;35.26;96764.94;5089600;28;20048;-65
2021/12/19 03:18:14;;;;;;;0.93;0.93;;;;;;;10.37;35.07;96738.59;5075805;28;20044;-65
2021/12/19 03:20:42;;;;;;;0.93;0.93;;;;;;;10.34;35.34;96746.19;5089889;28;20492;-65
2021/12/19 03:23:10;;;;;;;1.37;1.27;;;;;;;10.39;35.42;96693.28;5089886;28;20538;-65
2021/12/19 03:25:37;;;;;;;1.00;1.00;;;;;;;10.41;35.10;96731.78;5072706;28;20039;-65
2021/12/19 03:28:05;;;;;;;1.20;1.20;;;;;;;10.62;34.87;96707.38;5072974;28;20043;-65
2021/12/19 03:30:31;;;;;;;0.90;0.90;;;;;;;10.48;34.98;96702.50;5072959;28;20039;-65
2021/12/19 03:32:57;;;;;;;1.10;1.00;;;;;;;10.20;35.07;96709.25;5089992;28;20123;-65
2021/12/19 03:35:24;;;;;;;2.00;1.00;;;;;;;10.52;35.00;96701.03;5090753;28;20178;-66
2021/12/19 03:37:52;;;;;;;1.10;1.00;;;;;;;10.44;35.53;96688.09;5089565;28;20051;-65
2021/12/19 03:40:24;;;;;;;1.53;1.00;;;;;;;10.63;35.14;96682.44;5089698;28;20055;-65
2021/12/19 03:42:52;;;;;;;0.93;0.93;;;;;;;10.79;35.10;96678.31;5089145;28;20044;-65
2021/12/19 03:45:20;;;;;;;0.83;0.83;;;;;;;10.68;35.08;96679.09;5090360;28;20055;-65
2021/12/19 03:47:47;;;;;;;0.93;0.93;;;;;;;10.56;35.05;96663.19;5090263;28;20484;-65
2021/12/19 03:50:18;;;;;;;1.00;1.00;;;;;;;10.92;34.96;96657.63;5106018;28;20070;-66
2021/12/19 03:52:44;;;;;;;1.00;1.00;;;;;;;10.41;35.13;96646.91;5090507;28;20411;-65
2021/12/19 03:55:10;;;;;;;1.10;1.00;;;;;;;10.36;35.16;96645.97;5072207;28;20062;-64
2021/12/19 03:57:36;;;;;;;0.90;0.90;;;;;;;10.41;35.10;96646.91;5089043;28;20040;-66
2021/12/19 04:00:04;;;;;;;1.23;1.10;;;;;;;10.96;34.97;96626.91;5105898;28;20511;-65
2021/12/19 04:02:32;;;;;;;1.00;1.00;;;;;;;10.52;35.12;96611.59;5072488;28;20239;-66
2021/12/19 04:04:59;;;;;;;0.93;0.93;;;;;;;10.87;35.17;96619.56;5090009;28;20067;-65
2021/12/19 04:07:27;;;;;;;1.00;1.00;;;;;;;10.80;35.28;96622.34;5088771;28;20079;-66
2021/12/19 04:09:53;;;;;;;0.90;0.90;;;;;;;10.63;35.02;96608.16;5089800;28;20519;-67
2021/12/19 04:12:22;;;;;;;0.80;0.80;;;;;;;10.92;34.81;96606.38;5071840;28;20044;-66
2021/12/19 04:14:48;;;;;;;0.80;0.80;;;;;;;10.62;34.72;96582.66;5071830;28;20040;-66
2021/12/19 04:17:14;;;;;;;0.90;0.90;;;;;;;10.89;34.52;96582.94;5090197;28;20052;-66
2021/12/19 04:19:39;;;;;;;0.90;0.90;;;;;;;10.82;34.65;96576.97;5089800;28;20070;-67
2021/12/19 04:22:05;;;;;;;1.00;1.00;;;;;;;10.84;34.44;96575.69;5075765;28;20097;-66
2021/12/19 04:24:31;;;;;;;0.87;0.87;;;;;;;10.87;34.20;96571.78;5075915;28;20517;-67
2021/12/19 04:26:57;;;;;;;1.10;1.10;;;;;;;11.04;34.56;96557.53;5093379;28;20438;-66
2021/12/19 04:29:25;;;;;;;0.80;0.80;;;;;;;11.22;34.37;96553.91;5075731;28;20043;-65
2021/12/19 04:31:54;;;;;;;1.10;1.10;;;;;;;11.59;34.19;96555.13;5109641;28;20036;-67
2021/12/19 04:34:22;;;;;;;0.97;0.97;;;;;;;11.21;34.36;96536.38;5058926;28;20105;-66
2021/12/19 04:36:54;;;;;;;0.80;0.80;;;;;;;11.19;34.47;96544.53;5075885;28;20050;-66
2021/12/19 04:43:22;;;;;;;0.80;0.80;;;;;;;10.95;34.54;96526.25;5062012;28;20169;-66
2021/12/19 05:14:05;;;;;;;0.80;0.80;;;;;;;10.91;34.44;96453.44;5093513;28;20044;-65
2021/12/19 05:14:45;;;;;;;0.90;0.90;;;;;;;11.01;34.56;96467.72;5091919;28;20055;-67
2021/12/19 05:17:17;;;;;;;1.00;1.00;;;;;;;10.85;34.69;96430.50;5108703;28;20552;-68
2021/12/19 05:19:47;;;;;;;0.70;0.70;;;;;;;11.08;34.30;96452.47;5095618;28;20058;-65
2021/12/19 05:22:14;;;;;;;1.00;1.00;;;;;;;10.88;34.52;96425.53;5092465;28;20478;-66
2021/12/19 05:24:48;;;;;;;0.90;0.90;;;;;;;11.02;34.67;96441.97;5092076;28;20044;-65
2021/12/19 05:27:13;;;;;;;0.80;0.80;;;;;;;11.01;34.69;96432.41;5091803;28;20404;-65
2021/12/19 05:29:40;;;;;;;0.90;0.90;;;;;;;11.21;34.65;96420.28;5075002;28;20044;-66
2021/12/19 05:32:07;;;;;;;0.90;0.90;;;;;;;11.42;34.47;96426.75;5074067;28;20036;-67
2021/12/19 05:34:33;;;;;;;1.17;0.80;;;;;;;11.03;34.61;96423.16;5091749;28;20036;-68
2021/12/19 05:45:14;;;;;;;1.00;1.00;;;;;;;11.50;33.90;96418.38;5089503;28;20515;-67
2021/12/19 05:47:48;;;;;;;1.00;0.90;;;;;;;12.28;33.15;96411.03;5091001;28;20048;-65
2021/12/19 05:50:20;;;;;;;0.93;0.90;;;;;;;11.88;33.62;96379.38;5090521;28;20075;-66
2021/12/19 05:52:47;;;;;;;0.83;0.83;;;;;;;11.81;33.83;96405.34;5057255;28;20044;-70
2021/12/19 05:55:14;;;;;;;1.17;1.10;;;;;;;11.51;34.11;96404.84;5053888;28;20051;-69
2021/12/19 05:57:40;;;;;;;0.90;0.90;;;;;;;11.42;34.04;96400.19;5053903;28;20044;-67
2021/12/19 06:00:09;;;;;;;1.20;1.10;;;;;;;12.01;33.93;96391.50;5053446;28;20093;-67
2021/12/19 06:02:36;;;;;;;0.90;0.90;;;;;;;11.94;33.79;96385.56;5054023;28;20392;-65
2021/12/19 06:05:03;;;;;;;0.90;0.90;;;;;;;12.00;33.93;96386.44;5061908;28;20040;-66
2021/12/19 06:07:29;;;;;;;0.70;0.70;;;;;;;11.91;33.54;96375.44;5093765;28;20048;-65
2021/12/19 06:09:56;;;;;;;0.70;0.70;;;;;;;11.47;34.33;96371.03;5092146;28;20068;-65
2021/12/19 06:12:22;;;;;;;0.87;0.87;;;;;;;11.45;34.32;96373.13;5092105;28;20557;-66
2021/12/19 06:14:48;;;;;;;1.00;1.00;;;;;;;11.45;34.34;96371.28;5090702;28;20044;-65
2021/12/19 06:17:14;;;;;;;0.70;0.70;;;;;;;11.38;34.41;96361.84;5090694;28;20051;-67
2021/12/19 06:19:39;;;;;;;0.70;0.70;;;;;;;11.50;34.35;96351.97;5090376;28;20412;-68
2021/12/19 06:22:06;;;;;;;0.70;0.70;;;;;;;11.88;34.14;96362.63;5092064;28;20055;-67
2021/12/19 06:24:33;;;;;;;0.73;0.73;;;;;;;12.06;33.85;96354.34;5092039;28;20559;-66
2021/12/19 06:27:00;;;;;;;0.70;0.70;;;;;;;12.11;34.09;96353.63;5072309;28;20306;-65
2021/12/19 06:29:28;;;;;;;0.70;0.70;;;;;;;12.21;33.97;96348.44;5091102;28;20055;-65
2021/12/19 06:31:54;;;;;;;0.70;0.70;;;;;;;11.88;34.15;96336.03;5091585;28;20113;-67
2021/12/19 06:34:20;;;;;;;0.60;0.60;;;;;;;11.89;34.13;96332.31;5091563;28;20414;-66
2021/12/19 06:36:46;;;;;;;0.67;0.67;;;;;;;11.96;33.93;96326.84;5090676;28;20036;-65
2021/12/19 06:39:11;;;;;;;0.70;0.70;;;;;;;11.85;34.19;96315.28;5090273;28;20047;-65
2021/12/19 06:41:37;;;;;;;0.67;0.67;;;;;;;11.89;34.19;96313.72;5090688;28;20047;-65
2021/12/19 06:44:04;;;;;;;0.60;0.60;;;;;;;11.96;34.07;96298.41;5089657;28;20166;-65
2021/12/19 06:46:30;;;;;;;0.50;0.50;;;;;;;12.09;34.07;96306.00;5090403;28;20047;-65
2021/12/19 06:48:56;;;;;;;0.73;0.73;;;;;;;12.14;34.20;96308.72;5088883;28;20039;-66
2021/12/19 06:51:22;;;;;;;0.60;0.60;;;;;;;12.19;34.25;96297.31;5085245;28;20097;-65
2021/12/19 06:53:48;;;;;;;0.60;0.60;;;;;;;12.18;34.26;96307.16;5087489;28;20059;-66
2021/12/19 06:56:14;;;;;;;0.60;0.60;;;;;;;12.41;34.23;96309.53;5070822;28;20036;-65
2021/12/19 06:58:40;;;;;;;0.70;0.70;;;;;;;12.39;34.15;96306.34;5088356;28;20460;-66
2021/12/19 07:01:06;;;;;;;0.60;0.60;;;;;;;12.51;34.28;96301.69;5089419;28;20042;-66
2021/12/19 07:03:33;;;;;;;0.60;0.60;;;;;;;12.67;34.32;96302.63;5088961;28;20055;-65
2021/12/19 07:05:59;;;;;;;0.70;0.70;;;;;;;12.62;34.05;96284.75;5089791;28;20050;-65
2021/12/19 07:08:25;;;;;;;0.60;0.60;;;;;;;12.44;34.27;96276.31;5089823;28;20048;-66
2021/12/19 07:10:51;;;;;;;0.60;0.60;;;;;;;12.44;34.14;96273.66;5091426;28;20373;-65
2021/12/19 07:13:20;;;;;;;0.50;0.50;;;;;;;12.68;34.38;96286.41;5091253;28;20042;-66
2021/12/19 07:15:50;;;;;;;0.60;0.60;;;;;;;12.98;34.11;96278.66;5087662;28;20040;-66
2021/12/19 07:18:16;;;;;;;0.50;0.50;;;;;;;12.75;34.26;96271.03;5067588;28;20048;-65
2021/12/19 07:20:43;;;;;;;0.50;0.50;;;;;;;12.78;34.22;96267.84;5067361;28;20154;-66
2021/12/19 07:23:17;;;;;;;0.60;0.60;;;;;;;13.31;33.81;96265.09;5083578;28;20051;-66
2021/12/19 07:25:44;;;;;;;0.60;0.60;;;;;;;12.85;34.34;96262.31;5067472;28;20044;-65
2021/12/19 07:28:10;;;;;;;0.57;0.57;;;;;;;12.89;34.33;96264.22;5065492;28;20574;-65
2021/12/19 07:30:37;;;;;;;0.60;0.60;;;;;;;12.80;34.23;96265.75;5049926;28;20048;-64
2021/12/19 07:33:04;;;;;;;0.70;0.70;;;;;;;13.06;34.20;96251.59;5066457;28;20135;-65
2021/12/19 07:35:31;;;;;;;0.60;0.60;;;;;;;12.81;34.21;96246.03;5067825;28;20307;-65
2021/12/19 07:37:57;;;;;;;0.63;0.63;;;;;;;12.80;34.37;96247.09;5049978;28;20113;-66
2021/12/19 07:40:26;;;;;;;0.60;0.60;;;;;;;12.82;34.38;96244.19;5065857;28;20040;-65
2021/12/19 07:42:54;;;;;;;0.60;0.60;;;;;;;12.87;nan;96242.34;5066216;28;20194;-65
2021/12/19 07:45:20;;;;;;;0.60;0.60;;;;;;;12.93;34.25;96236.00;5066220;28;20143;-65
2021/12/19 07:47:46;;;;;;;0.70;0.70;;;;;;;12.98;34.32;96230.72;5066065;28;20158;-65
2021/12/19 07:50:13;;;;;;;0.60;0.60;;;;;;;13.34;34.12;96224.63;5067886;28;20131;-64
2021/12/19 07:52:39;;;;;;;0.60;0.60;;;;;;;13.35;34.34;96225.41;5083040;28;20183;-65
2021/12/19 07:55:06;;;;;;;0.60;0.60;;;;;;;13.27;34.28;96202.72;5067379;28;20179;-65
2021/12/19 07:57:32;;;;;;;0.60;0.60;;;;;;;13.13;34.46;96230.88;5066019;28;20106;-65
2021/12/19 07:59:58;;;;;;;0.50;0.50;;;;;;;13.11;34.38;96226.84;5066104;28;20043;-65
2021/12/19 08:02:24;;;;;;;0.60;0.60;;;;;;;13.18;34.58;96224.75;5067384;28;20048;-65
2021/12/19 08:04:50;;;;;;;0.60;0.60;;;;;;;12.88;34.75;96182.75;5065713;28;20491;-65
2021/12/19 08:07:17;;;;;;;0.60;0.60;;;;;;;13.13;34.69;96217.53;5067415;28;20056;-65
2021/12/19 08:12:29;;;;;;;0.50;0.50;;;;;;;12.98;34.67;96182.78;5067443;28;20052;-65
2021/12/19 08:14:55;;;;;;;0.57;0.57;;;;;;;13.47;34.55;96218.81;5067508;28;20044;-65
2021/12/19 08:17:21;;;;;;;0.50;0.50;;;;;;;13.17;34.83;96191.19;5032652;28;20044;-65
2021/12/19 08:19:48;;;;;;;0.50;0.50;;;;;;;13.49;34.73;96206.03;5049239;28;20106;-65
2021/12/19 08:22:14;;;;;;;0.60;0.60;;;;;;;13.20;34.73;96154.19;5066394;28;20047;-64
2021/12/19 08:24:41;;;;;;;0.60;0.60;;;;;;;13.45;34.76;96201.50;5067629;28;20048;-65
2021/12/19 08:27:08;;;;;;;0.60;0.60;;;;;;;13.54;34.92;96198.06;5065469;28;20484;-65
2021/12/19 08:29:34;;;;;;;0.50;0.50;;;;;;;13.39;34.74;96192.66;5087888;28;20456;-65
2021/12/19 08:31:59;;;;;;;0.50;0.50;;;;;;;13.33;34.81;96190.25;5090141;28;20521;-65
2021/12/19 08:34:25;;;;;;;0.50;0.50;;;;;;;13.31;34.86;96166.50;5088482;28;20039;-65
2021/12/19 08:36:51;;;;;;;0.60;0.60;;;;;;;13.36;34.70;96181.72;5105640;28;20068;-64
2021/12/19 08:39:18;;;;;;;0.50;0.50;;;;;;;13.41;34.79;96177.22;5090009;28;20067;-64
2021/12/19 08:41:44;;;;;;;0.80;0.80;;;;;;;13.42;34.78;96172.69;5089884;28;20492;-65
2021/12/19 08:44:10;;;;;;;0.50;0.50;;;;;;;13.26;34.70;96142.50;5089784;28;20048;-66
2021/12/19 08:46:37;;;;;;;0.50;0.50;;;;;;;13.38;34.77;96174.25;5089649;28;20036;-65
2021/12/19 08:49:04;;;;;;;0.60;0.60;;;;;;;13.59;34.61;96163.41;5089624;28;20036;-65
2021/12/19 08:51:34;;;;;;;0.50;0.50;;;;;;;13.81;34.34;96163.22;5088656;28;20416;-65
2021/12/19 08:54:00;;;;;;;0.50;0.50;;;;;;;13.79;34.26;96165.38;5088520;28;20082;-64
2021/12/19 08:56:27;;;;;;;0.50;0.50;;;;;;;13.86;34.39;96159.78;5089734;28;20048;-65
2021/12/19 08:58:53;;;;;;;0.50;0.50;;;;;;;13.64;34.22;96157.28;5054701;28;20103;-66
2021/12/19 09:01:19;;;;;;;0.60;0.60;;;;;;;13.57;34.51;96133.56;5088419;28;20496;-66
2021/12/19 09:03:45;;;;;;;0.50;0.50;;;;;;;13.59;34.48;96147.41;5089689;28;20051;-65
2021/12/19 09:06:11;;;;;;;0.50;0.50;;;;;;;13.64;34.19;96153.84;5055739;28;20078;-66
2021/12/19 09:08:37;;;;;;;0.50;0.50;;;;;;;13.74;34.18;96157.34;5093462;28;20091;-66
2021/12/19 09:11:03;;;;;;;0.50;0.50;;;;;;;13.54;34.42;96144.75;5093402;28;20040;-66
2021/12/19 09:13:30;;;;;;;0.60;0.60;;;;;;;13.86;34.44;96146.44;5058861;28;20039;-70
2021/12/19 09:15:56;;;;;;;0.60;0.60;;;;;;;13.51;34.61;96142.59;5092169;28;20040;-67
2021/12/19 09:18:22;;;;;;;0.60;0.60;;;;;;;13.49;34.56;96133.25;5074729;28;20043;-66
2021/12/19 09:20:49;;;;;;;0.60;0.60;;;;;;;14.00;34.33;96140.34;5092805;28;20044;-66
2021/12/19 09:23:17;;;;;;;0.57;0.57;;;;;;;14.06;34.30;96136.63;5093006;28;20040;-65
2021/12/19 09:25:43;;;;;;;0.50;0.50;;;;;;;13.76;34.27;96133.09;5074506;28;20048;-66
2021/12/19 09:28:10;;;;;;;0.60;0.60;;;;;;;13.87;34.25;96130.16;5091228;28;20052;-67
2021/12/19 09:30:35;;;;;;;0.60;0.60;;;;;;;13.67;34.30;96135.44;5074542;28;20051;-67
2021/12/19 09:33:03;;;;;;;0.60;0.60;;;;;;;14.08;34.17;96131.81;5092324;28;20035;-67
2021/12/19 09:35:30;;;;;;;0.53;0.53;;;;;;;13.77;34.47;96121.34;5073953;28;20039;-66
2021/12/19 09:37:56;;;;;;;0.60;0.60;;;;;;;13.73;34.20;96136.28;5074331;28;20429;-66
2021/12/19 09:40:31;;;;;;;0.50;0.50;;;;;;;13.99;34.26;96125.38;5092264;28;20071;-67
2021/12/19 09:43:01;;;;;;;0.50;0.50;;;;;;;14.15;34.07;96108.34;5092251;28;20044;-67
2021/12/19 09:45:29;;;;;;;0.50;0.50;;;;;;;14.23;34.04;96117.69;5091323;28;20044;-67
2021/12/19 09:47:55;;;;;;;0.50;0.50;;;;;;;13.73;34.17;96115.72;5074691;28;20544;-67
2021/12/19 09:50:21;;;;;;;0.53;0.53;;;;;;;13.79;34.14;96108.56;5092792;28;20048;-67
2021/12/19 09:52:49;;;;;;;0.50;0.50;;;;;;;13.84;34.38;96100.56;5091429;28;20040;-67
2021/12/19 09:55:19;;;;;;;0.57;0.57;;;;;;;14.07;34.34;96094.75;5091289;28;20051;-67
2021/12/19 09:57:46;;;;;;;0.60;0.60;;;;;;;14.05;34.18;96096.88;5092683;28;20036;-67
2021/12/19 10:00:12;;;;;;;0.50;0.50;;;;;;;14.05;34.07;96091.53;5074696;28;20048;-69
2021/12/19 10:02:43;;;;;;;0.50;0.50;;;;;;;14.13;34.00;96093.69;5092783;28;20552;-67
2021/12/19 10:05:17;;;;;;;0.50;0.50;;;;;;;14.09;33.68;96001.88;5092115;28;20403;-67
2021/12/19 10:07:55;;;;;;;0.50;0.50;;;;;;;14.66;33.40;96082.47;5091075;28;20063;-67
2021/12/19 10:11:00;;;;;;;0.60;0.60;;;;;;;14.68;33.30;96080.34;5074343;28;20067;-67
2021/12/19 10:13:32;;;;;;;0.50;0.50;;;;;;;14.50;33.60;96064.88;5090938;28;20056;-67
2021/12/19 10:15:58;;;;;;;0.53;0.53;;;;;;;14.01;34.25;96067.25;5092413;28;20101;-67
2021/12/19 10:18:24;;;;;;;0.60;0.60;;;;;;;13.83;34.13;96057.09;5090395;28;20044;-67
2021/12/19 10:20:57;;;;;;;0.50;0.50;;;;;;;14.50;33.80;96059.53;5107656;28;20048;-67
2021/12/19 10:23:36;;;;;;;1.33;0.50;;;;;;;14.65;33.42;96057.63;5073864;28;20572;-68
2021/12/19 10:26:07;;;;;;;2.00;0.43;;;;;;;14.57;33.68;96054.72;5091346;28;20040;-68
2021/12/19 10:28:47;;;;;;;0.50;0.50;;;;;;;14.25;33.90;96054.22;5090579;28;20073;-68
2021/12/19 10:31:14;;;;;;;0.50;0.50;;;;;;;13.90;33.90;96019.50;5073811;28;20490;-68
2021/12/19 10:33:40;;;;;;;0.50;0.50;;;;;;;13.82;33.86;96033.38;5090816;28;20038;-68
2021/12/19 10:36:07;;;;;;;0.50;0.50;;;;;;;14.43;33.79;96042.97;5090503;28;20047;-70
2021/12/19 10:38:35;;;;;;;0.57;0.57;;;;;;;14.51;33.78;96042.44;5090063;28;20052;-70
2021/12/19 10:41:10;;;;;;;0.57;0.57;;;;;;;14.77;33.38;96046.66;5072816;28;20069;-69
2021/12/19 10:43:59;;;;;;;0.60;0.60;;;;;;;14.70;33.33;96038.09;5056347;28;20404;-69
2021/12/19 10:46:30;;;;;;;0.50;0.50;;;;;;;14.64;33.49;96037.34;5074127;28;20044;-70
2021/12/19 10:48:57;;;;;;;0.53;0.53;;;;;;;14.28;33.77;96045.66;5065331;28;20543;-69
2021/12/19 10:51:24;;;;;;;0.50;0.50;;;;;;;14.12;33.87;96049.38;5069974;28;20539;-70
2021/12/19 10:53:53;;;;;;;0.50;0.50;;;;;;;14.53;33.55;96048.31;5089381;28;20036;-69
2021/12/19 10:56:34;;;;;;;0.50;0.50;;;;;;;14.54;33.59;96055.25;5091161;28;20177;-68
2021/12/19 10:59:20;;;;;;;0.50;0.50;;;;;;;14.90;32.92;96046.06;5054357;28;20047;-68
2021/12/19 11:01:48;;;;;;;0.77;0.50;;;;;;;14.39;33.61;96036.59;5089454;28;20144;-69
2021/12/19 11:04:19;;;;;;;0.60;0.60;;;;;;;14.42;33.75;96044.06;5090718;28;20040;-68
2021/12/19 11:06:50;;;;;;;0.50;0.50;;;;;;;14.28;33.72;96010.97;5088711;28;20048;-68
2021/12/19 11:09:19;;;;;;;0.50;0.50;;;;;;;14.44;33.71;96023.22;5089844;28;20048;-68
2021/12/19 11:11:55;;;;;;;0.50;0.50;;;;;;;14.71;33.54;96047.75;5091027;28;20036;-68
2021/12/19 11:14:20;;;;;;;0.50;0.50;;;;;;;14.06;33.80;96050.44;5070428;28;20380;-68
2021/12/19 11:16:47;;;;;;;0.60;0.60;;;;;;;14.21;33.63;96034.41;5077678;28;20047;-69
2021/12/19 11:19:14;;;;;;;1.57;0.60;;;;;;;14.20;33.83;96044.31;5067301;28;20550;-68
2021/12/19 11:21:40;;;;;;;1.80;1.10;;;;;;;14.07;33.99;96049.38;5050355;28;20110;-68
2021/12/19 11:24:09;;;;;;;3.43;0.80;;;;;;;14.66;33.63;96040.53;5050027;28;20105;-68
2021/12/19 11:26:38;;;;;;;1.17;0.90;;;;;;;14.48;33.63;96033.13;5076380;28;20035;-68
2021/12/19 11:29:05;;;;;;;1.77;1.10;;;;;;;14.44;33.60;96031.22;5087680;28;20067;-68
2021/12/19 11:31:32;;;;;;;0.70;0.70;;;;;;;14.26;33.77;96037.13;5089387;28;20392;-68
2021/12/19 11:34:04;;;;;;;0.70;0.70;;;;;;;14.90;33.26;96032.72;5089283;28;20044;-68
2021/12/19 11:36:33;;;;;;;0.70;0.70;;;;;;;14.77;33.49;96035.97;5071628;28;20036;-68
2021/12/19 11:39:02;;;;;;;0.70;0.70;;;;;;;14.73;33.33;96035.72;5054735;28;20046;-67
2021/12/19 11:41:28;;;;;;;1.30;1.00;;;;;;;14.20;33.50;96033.63;5070675;28;20474;-68
2021/12/19 11:43:55;;;;;;;1.37;0.70;;;;;;;14.19;33.68;96040.03;5088875;28;20138;-67
2021/12/19 11:46:41;;;;;;;5.30;1.50;;;;;;;15.11;32.71;96043.06;5072009;28;20093;-68
2021/12/19 11:49:17;;;;;;;6.77;2.00;;;;;;;14.82;33.21;96038.63;5055540;28;20036;-67
2021/12/19 11:51:43;;;;;;;1.90;1.13;;;;;;;13.96;33.69;96010.44;5072174;28;20063;-66
2021/12/19 11:54:18;;;;;;;3.40;1.50;;;;;;;15.06;32.78;96036.94;5090442;28;20040;-66
2021/12/19 11:57:07;;;;;;;1.80;1.20;;;;;;;15.16;32.49;96044.91;5074030;28;20477;-66
2021/12/19 11:59:34;;;;;;;2.07;1.10;;;;;;;14.45;33.39;96043.53;5068781;28;20421;-68
2021/12/19 12:02:27;;;;;;;2.50;1.33;;;;;;;15.13;32.52;96043.59;5071631;28;20052;-69
2021/12/19 12:05:13;;;;;;;4.97;2.00;;;;;;;14.92;32.78;96044.75;5051784;28;20079;-64
2021/12/19 12:08:17;;;;;;;5.77;2.70;;;;;;;15.01;32.61;96043.09;5041280;28;20052;-69
2021/12/19 12:10:54;;;;;;;9.13;3.37;;;;;;;14.59;33.38;96015.19;5043178;28;20088;-66
2021/12/19 12:13:34;;;;;;;2.17;1.33;;;;;;;14.94;33.01;96041.81;5067550;28;20041;-67
2021/12/19 12:16:18;;;;;;;4.68;1.75;;;;;;;14.86;32.97;96029.81;5069138;28;20032;-68
2021/12/19 12:18:44;;;;;;;5.97;1.40;;;;;;;14.07;33.68;96034.16;5050588;28;20045;-67
2021/12/19 12:21:25;;;;;;;3.23;1.77;;;;;;;15.16;32.74;96031.53;5069329;28;20047;-67
2021/12/19 12:23:53;;;;;;;2.80;1.70;;;;;;;14.66;32.90;96031.72;5051796;28;20079;-67
2021/12/19 12:26:27;;;;;;;4.77;2.03;;;;;;;14.61;33.30;95989.00;5051287;28;20497;-67
2021/12/19 12:28:54;;;;;;;13.80;2.03;;;;;;;14.37;33.41;96020.03;5050497;28;20500;-67
2021/12/19 12:31:21;;;;;;;6.97;2.70;;;;;;;14.42;33.15;96022.69;5051217;28;20043;-67
2021/12/19 12:33:47;;;;;;;3.70;1.77;;;;;;;14.37;32.95;96014.69;5082418;28;20389;-67
2021/12/19 12:36:15;;;;;;;10.40;1.90;;;;;;;14.26;33.08;96021.91;5084709;28;20040;-67
2021/12/19 12:38:46;;;;;;;8.47;2.40;;;;;;;14.50;33.16;96014.94;5051430;28;20076;-67
2021/12/19 12:41:26;;;;;;;7.53;3.25;;;;;;;14.21;32.97;96011.22;5073095;28;20223;-66
2021/12/19 12:43:52;;;;;;;9.38;2.40;;;;;;;14.43;33.18;96018.94;5089727;28;20187;-66
2021/12/19 12:46:20;;;;;;;7.37;2.80;;;;;;;14.65;32.77;96019.44;5091175;28;20039;-66
2021/12/19 12:48:53;;;;;;;7.00;2.70;;;;;;;14.89;32.29;96010.56;5090299;28;20036;-67